ADDS METAR Data INFO
IDs: Format: Raw Decoded Include TAF

Data at: 0929 UTC 11 Dec 2017

KSIY 110853Z AUTO 00000KT 10SM CLR M07/M08 A3043 RMK AO2 SLP335 T10671078 51008
KSIY 110753Z AUTO 00000KT 10SM CLR M06/M07 A3042 RMK AO2 SLP333 T10561067 400781089
KSIY 110653Z AUTO 00000KT 10SM CLR M06/M07 A3042 RMK AO2 SLP335 T10561072
KSIY 110553Z AUTO 02003KT 10SM CLR M06/M07 A3040 RMK AO2 SLP333 T10561072 10072 21056 53007
KSIY 110453Z AUTO 00000KT 10SM CLR M05/M07 A3039 RMK AO2 SLP330 T10501067
KSIY 110353Z AUTO 00000KT 10SM CLR M03/M06 A3038 RMK AO2 SLP328 T10331056
KSIY 110253Z AUTO 00000KT 10SM CLR M02/M06 A3038 RMK AO2 SLP327 T10221056 50002
KSIY 110153Z AUTO 00000KT 10SM CLR M01/M04 A3038 RMK AO2 SLP326 T10111044
KSIY 110053Z AUTO 14004KT 10SM CLR 03/M04 A3038 RMK AO2 SLP321 T00281039
KSIY 102353Z AUTO 22003KT 10SM CLR 07/M03 A3037 RMK AO2 SLP313 T00721028 10078 21028 56016
KSIY 102253Z AUTO 00000KT 10SM CLR 08/M03 A3038 RMK AO2 SLP315 T00781028
KSIY 102153Z AUTO 00000KT 10SM CLR 07/M03 A3039 RMK AO2 SLP322 T00671028
KSIY 102053Z AUTO 18004KT 10SM CLR 06/M02 A3042 RMK AO2 SLP332 T00561022 58025
KSIY 101953Z AUTO 00000KT 10SM CLR 03/M02 A3046 RMK AO2 SLP348 T00331017
KSIY 101853Z AUTO 00000KT 10SM CLR 01/M02 A3049 RMK AO2 SLP360 T00061022
KSIY 101753Z AUTO 00000KT 10SM CLR M03/M03 A3050 RMK AO2 SLP368 I6000 T10281033 11028 21089 53004
KSIY 101653Z AUTO 00000KT 6SM BR CLR M06/M06 A3050 RMK AO2 SLP368 T10561056
KSIY 101641Z AUTO 00000KT 3SM BR SCT001 M07/M07 A3050 RMK AO2 T10671072
KSIY 101637Z AUTO 00000KT 1 1/4SM BR SCT001 M07/M07 A3050 RMK AO2 T10671072
KSIY 101625Z AUTO 00000KT 1/2SM FZFG VV001 M07/M08 A3050 RMK AO2 T10671078
KSIY 101601Z AUTO 00000KT 1/4SM FZFG VV001 M08/M08 A3049 RMK AO2 T10781083
KSIY 101557Z AUTO 00000KT 1 1/4SM BR OVC001 M08/M09 A3049 RMK AO2 T10781089
KSIY 101553Z AUTO 00000KT 10SM OVC001 M08/M09 A3049 RMK AO2 SLP366 T10781094
KSIY 101537Z AUTO 00000KT 10SM OVC001 M08/M11 A3049 RMK AO2 T10831106
KSIY 101525Z AUTO 00000KT 10SM BKN002 M09/M10 A3049 RMK AO2 T10891100
KSIY 101511Z AUTO 00000KT 10SM FEW001 M08/M09 A3049 RMK AO2 T10781089
KSIY 101453Z AUTO 17003KT 10SM CLR M08/M09 A3049 RMK AO2 SLP366 I1000 I3000 T10831089 50000
KSIY 101353Z AUTO 22003KT 10SM CLR M08/M09 A3049 RMK AO2 SLP365 T10781089
KSIY 101253Z AUTO 00000KT 10SM CLR M07/M08 A3049 RMK AO2 SLP362 T10721083
KSIY 101153Z AUTO 00000KT 10SM CLR M07/M08 A3049 RMK AO2 SLP354 T10671083 11039 21078 58004
KSIY 101053Z AUTO 16003KT 10SM CLR M07/M08 A3050 RMK AO2 SLP357 T10721083
KSIY 100953Z AUTO 12004KT 10SM CLR M07/M08 A3050 RMK AO2 SLP359 T10671078
KSIY 100853Z AUTO 02003KT 10SM CLR M06/M08 A3050 RMK AO2 SLP360 T10611078 51005
KSIY 100753Z AUTO 21004KT 10SM CLR M06/M07 A3050 RMK AO2 SLP360 T10561072 400781078
KSIY 100653Z AUTO 16003KT 10SM CLR M05/M07 A3050 RMK AO2 SLP364 T10501067
KSIY 100553Z AUTO 00000KT 10SM CLR M05/M07 A3049 RMK AO2 SLP361 T10501067 10072 21050 53004
KSIY 100453Z AUTO 03003KT 10SM CLR M03/M06 A3048 RMK AO2 SLP358 T10331056
KSIY 100353Z AUTO 10003KT 10SM CLR M03/M05 A3048 RMK AO2 SLP362 T10281050
KSIY 100253Z AUTO 00000KT 10SM CLR M02/M06 A3048 RMK AO2 SLP360 T10221056 53011
KSIY 100153Z AUTO 07003KT 10SM CLR 00/M04 A3046 RMK AO2 SLP352 T00001039
KSIY 100053Z AUTO 14003KT 10SM CLR 01/M04 A3045 RMK AO2 SLP345 T00061044
KSIY 092353Z AUTO 00000KT 10SM CLR 07/M02 A3044 RMK AO2 SLP337 T00721022 10078 21022 55010
KSIY 092253Z AUTO 21003KT 10SM CLR 08/M03 A3044 RMK AO2 SLP335 T00781028
KSIY 092153Z AUTO 24003KT 10SM CLR 07/M02 A3045 RMK AO2 SLP340 T00671022